Time;durP1;ratioP1;P1;durP2;ratioP2;P2;SDS_P1;SDS_P2;PMS_P1;PMS_P2;Temp;Humidity;BMP_temperature;BMP_pressure;BME280_temperature;BME280_humidity;BME280_pressure;Samples;Min_cycle;Max_cycle;Signal;HPM_P1;HPM_P2
2021/01/08 00:00:17;;;;;;;91.85;40.85;;;-2.90;99.90;;;;;;2097595;28;20480;-67
2021/01/08 00:01:18;;;;;;;96.53;40.65;;;-2.90;99.90;;;;;;2098319;28;20078;-67
2021/01/08 00:02:19;;;;;;;100.32;41.30;;;-2.90;99.90;;;;;;2097757;28;20029;-68
2021/01/08 00:03:19;;;;;;;96.65;40.67;;;-2.90;99.90;;;;;;2105543;28;20028;-68
2021/01/08 00:04:21;;;;;;;93.53;39.30;;;-2.80;99.90;;;;;;2104537;28;20550;-68
2021/01/08 00:05:22;;;;;;;98.25;41.55;;;-2.80;99.90;;;;;;2095706;28;20032;-68
2021/01/08 00:06:22;;;;;;;96.50;39.05;;;-2.80;99.90;;;;;;2091346;28;20669;-68
2021/01/08 00:07:23;;;;;;;95.93;38.97;;;-2.70;99.90;;;;;;2088463;28;20085;-68
2021/01/08 00:08:24;;;;;;;95.60;36.45;;;-2.80;99.90;;;;;;2082474;28;20036;-68
2021/01/08 00:09:24;;;;;;;82.03;36.45;;;-2.70;99.90;;;;;;2092039;28;20047;-68
2021/01/08 00:10:26;;;;;;;91.20;37.35;;;-2.70;99.90;;;;;;2094489;28;20082;-68
2021/01/08 00:11:27;;;;;;;84.18;36.20;;;-2.80;99.90;;;;;;2097560;28;20492;-68
2021/01/08 00:12:31;;;;;;;95.75;38.17;;;-2.80;99.90;;;;;;2088733;28;20029;-68
2021/01/08 00:13:31;;;;;;;94.60;38.72;;;-2.80;99.90;;;;;;2088689;28;20491;-69
2021/01/08 00:14:32;;;;;;;106.05;40.97;;;-2.70;99.90;;;;;;2096990;28;20020;-68
2021/01/08 00:15:33;;;;;;;96.78;39.25;;;-2.70;99.90;;;;;;2097039;28;20032;-69
2021/01/08 00:16:34;;;;;;;89.55;38.25;;;-2.70;99.90;;;;;;2098109;28;20099;-69
2021/01/08 00:17:35;;;;;;;101.47;38.67;;;-2.70;99.90;;;;;;2096793;28;20040;-68
2021/01/08 00:18:36;;;;;;;92.68;38.92;;;-2.60;99.90;;;;;;2096944;28;20258;-69
2021/01/08 00:19:36;;;;;;;93.45;38.50;;;-2.70;99.90;;;;;;2098139;28;20029;-69
2021/01/08 00:20:37;;;;;;;98.35;38.33;;;-2.70;99.90;;;;;;2097023;28;20027;-68
2021/01/08 00:21:42;;;;;;;93.53;40.03;;;-2.70;99.90;;;;;;2097381;28;20131;-68
2021/01/08 00:22:45;;;;;;;99.88;38.00;;;-2.60;99.90;;;;;;2103439;28;20121;-68
2021/01/08 00:23:47;;;;;;;101.70;39.78;;;-2.70;99.90;;;;;;2096682;28;20013;-68
2021/01/08 00:24:48;;;;;;;105.72;39.67;;;-2.60;99.90;;;;;;2092590;28;20032;-69
2021/01/08 00:25:51;;;;;;;102.20;39.22;;;-2.60;99.90;;;;;;2097388;28;20044;-68
2021/01/08 00:26:54;;;;;;;108.40;40.65;;;-2.50;99.90;;;;;;2096592;28;20059;-68
2021/01/08 00:27:55;;;;;;;97.00;39.22;;;-2.50;99.90;;;;;;2097198;28;20023;-68
2021/01/08 00:28:55;;;;;;;99.88;39.85;;;-2.50;99.90;;;;;;2097501;28;20427;-68
2021/01/08 00:29:56;;;;;;;101.00;41.67;;;-2.60;99.90;;;;;;2089992;28;20045;-68
2021/01/08 00:30:57;;;;;;;112.35;41.75;;;-2.50;99.90;;;;;;2098906;28;20658;-68
2021/01/08 00:31:57;;;;;;;109.75;41.17;;;-2.50;99.90;;;;;;2105873;28;20107;-68
2021/01/08 00:32:58;;;;;;;103.63;41.33;;;-2.50;99.90;;;;;;2096891;28;20036;-68
2021/01/08 00:33:59;;;;;;;115.95;42.65;;;-2.40;99.90;;;;;;2097205;28;20059;-68
2021/01/08 00:34:59;;;;;;;110.47;43.10;;;-2.40;99.90;;;;;;2103725;28;20086;-68
2021/01/08 00:36:02;;;;;;;112.05;42.05;;;-2.40;99.90;;;;;;2092588;28;20025;-68
2021/01/08 00:37:03;;;;;;;109.43;41.63;;;-2.40;99.90;;;;;;2094356;28;20016;-68
2021/01/08 00:38:04;;;;;;;103.22;41.30;;;-2.40;99.90;;;;;;2092810;28;20024;-68
2021/01/08 00:39:05;;;;;;;111.18;41.03;;;-2.40;99.90;;;;;;2089515;28;20037;-67
2021/01/08 00:40:06;;;;;;;105.72;41.75;;;-2.40;99.90;;;;;;2089468;28;20500;-67
2021/01/08 00:41:06;;;;;;;97.50;38.60;;;-2.40;99.90;;;;;;2090794;28;20508;-68
2021/01/08 00:42:08;;;;;;;98.47;39.22;;;-2.50;99.90;;;;;;2096041;28;20044;-67
2021/01/08 00:43:09;;;;;;;105.10;41.53;;;-2.50;99.90;;;;;;2096426;28;20065;-67
2021/01/08 00:44:09;;;;;;;103.10;39.97;;;-2.50;99.90;;;;;;2097081;28;20033;-67
2021/01/08 00:45:11;;;;;;;105.20;40.50;;;-2.50;99.90;;;;;;2094727;28;20032;-67
2021/01/08 00:46:12;;;;;;;105.97;43.00;;;-2.50;99.90;;;;;;2097928;28;20492;-67
2021/01/08 00:47:12;;;;;;;105.50;43.75;;;-2.60;99.90;;;;;;2097742;28;20028;-67
2021/01/08 00:48:13;;;;;;;101.68;39.97;;;-2.50;99.90;;;;;;2096584;28;20028;-67
2021/01/08 00:49:15;;;;;;;94.65;40.25;;;-2.50;99.90;;;;;;2097002;28;20017;-68
2021/01/08 00:50:17;;;;;;;104.85;40.67;;;-2.60;99.90;;;;;;2095473;28;20028;-67
2021/01/08 00:51:18;;;;;;;99.40;40.03;;;-2.60;99.90;;;;;;2093516;28;20075;-67
2021/01/08 00:52:18;;;;;;;103.28;41.40;;;-2.60;99.90;;;;;;2096056;28;20044;-68
2021/01/08 00:53:19;;;;;;;100.65;40.83;;;-2.70;99.90;;;;;;2097015;28;20074;-67
2021/01/08 00:54:20;;;;;;;107.60;42.75;;;-2.70;99.90;;;;;;2096108;28;20460;-67
2021/01/08 00:55:21;;;;;;;103.78;41.65;;;-2.70;99.90;;;;;;2097154;28;20004;-68
2021/01/08 00:56:22;;;;;;;98.78;40.72;;;-2.60;99.90;;;;;;2097794;28;20029;-67
2021/01/08 00:57:23;;;;;;;109.30;45.13;;;-2.60;99.90;;;;;;2097282;28;20028;-67
2021/01/08 00:58:26;;;;;;;104.55;42.40;;;-2.60;99.90;;;;;;2096975;28;20100;-68
2021/01/08 00:59:27;;;;;;;113.25;44.83;;;-2.70;99.90;;;;;;2097681;28;20035;-67
2021/01/08 01:00:27;;;;;;;116.78;45.45;;;-2.70;99.90;;;;;;2091806;28;20035;-67
2021/01/08 01:01:28;;;;;;;108.28;44.17;;;-2.70;99.90;;;;;;2089363;28;20017;-67
2021/01/08 01:02:29;;;;;;;109.00;43.75;;;-2.70;99.90;;;;;;2103462;28;20016;-67
2021/01/08 01:03:29;;;;;;;102.13;42.78;;;-2.70;99.90;;;;;;2104692;28;20048;-67
2021/01/08 01:04:30;;;;;;;110.60;44.22;;;-2.70;99.90;;;;;;2097401;28;20146;-67
2021/01/08 01:05:31;;;;;;;98.40;41.22;;;-2.80;99.90;;;;;;2097077;28;20027;-67
2021/01/08 01:06:33;;;;;;;107.85;44.15;;;-2.80;99.90;;;;;;2097524;28;20025;-67
2021/01/08 01:07:34;;;;;;;;;;;-2.80;99.90;;;;;;2097429;28;20099;-67
2021/01/08 01:08:35;;;;;;;97.90;40.55;;;-2.80;99.90;;;;;;2097260;28;19905;-67
2021/01/08 01:09:35;;;;;;;113.47;43.42;;;-2.80;99.90;;;;;;2097568;28;20029;-67
2021/01/08 01:10:36;;;;;;;106.30;41.88;;;-2.80;99.90;;;;;;2093524;28;20024;-67
2021/01/08 01:11:38;;;;;;;115.75;45.13;;;-2.80;99.90;;;;;;2097508;28;20036;-67
2021/01/08 01:12:39;;;;;;;104.93;43.22;;;-2.80;99.90;;;;;;2090724;28;20448;-67
2021/01/08 01:13:39;;;;;;;101.35;41.50;;;-2.80;99.90;;;;;;2097018;28;20025;-67
2021/01/08 01:14:40;;;;;;;104.97;45.47;;;-2.80;99.90;;;;;;2095792;28;20056;-67
2021/01/08 01:15:41;;;;;;;114.35;46.15;;;-2.80;99.90;;;;;;2096797;28;20020;-67
2021/01/08 01:16:41;;;;;;;114.32;44.45;;;-2.80;99.90;;;;;;2096623;28;20032;-67
2021/01/08 01:17:42;;;;;;;115.47;45.08;;;-2.80;99.90;;;;;;2096578;28;20066;-67
2021/01/08 01:18:44;;;;;;;103.47;43.60;;;-2.80;99.90;;;;;;2097030;28;20056;-67
2021/01/08 01:19:44;;;;;;;114.28;45.25;;;-2.80;99.90;;;;;;2097594;28;20015;-67
2021/01/08 01:20:46;;;;;;;116.60;45.53;;;-2.80;99.90;;;;;;2095769;28;20048;-67
2021/01/08 01:21:46;;;;;;;115.18;45.95;;;-2.80;99.90;;;;;;2094526;28;20021;-67
2021/01/08 01:22:47;;;;;;;121.85;47.72;;;-2.80;99.90;;;;;;2096222;28;20556;-67
2021/01/08 01:23:48;;;;;;;107.97;42.28;;;-2.80;99.90;;;;;;2096889;28;20017;-66
2021/01/08 01:24:49;;;;;;;114.80;44.95;;;-2.70;99.90;;;;;;2097353;28;20377;-67
2021/01/08 01:25:50;;;;;;;121.72;46.08;;;-2.70;99.90;;;;;;2089145;28;20052;-67
2021/01/08 01:26:55;;;;;;;112.20;45.13;;;-2.60;99.90;;;;;;2088463;28;20440;-67
2021/01/08 01:27:56;;;;;;;125.55;46.88;;;-2.60;99.90;;;;;;2095781;28;20225;-67
2021/01/08 01:28:56;;;;;;;115.82;44.22;;;-2.70;99.90;;;;;;2096784;28;20036;-67
2021/01/08 01:29:57;;;;;;;112.80;45.58;;;-2.70;99.90;;;;;;2089289;28;20088;-67
2021/01/08 01:30:58;;;;;;;118.47;45.47;;;-2.70;99.90;;;;;;2091560;28;20094;-66
2021/01/08 01:31:58;;;;;;;118.50;47.17;;;-2.80;99.90;;;;;;2096943;28;20023;-67
2021/01/08 01:32:59;;;;;;;110.93;45.35;;;-2.80;99.90;;;;;;2096721;28;20039;-67
2021/01/08 01:34:00;;;;;;;119.18;47.40;;;-2.80;99.90;;;;;;2095733;28;20059;-67
2021/01/08 01:35:00;;;;;;;107.35;40.88;;;-2.80;99.90;;;;;;2096211;28;20082;-67
2021/01/08 01:36:07;;;;;;;104.82;40.72;;;-2.80;99.90;;;;;;2094975;28;20013;-67
2021/01/08 01:37:07;;;;;;;98.45;41.88;;;-2.80;99.90;;;;;;2097251;28;20659;-69
2021/01/08 01:38:08;;;;;;;96.80;40.13;;;-2.80;99.90;;;;;;2094714;28;20017;-67
2021/01/08 01:39:09;;;;;;;104.00;41.72;;;-2.80;99.90;;;;;;2093943;28;20031;-66
2021/01/08 01:40:10;;;;;;;105.65;43.17;;;-2.80;99.90;;;;;;2096580;28;20020;-67
2021/01/08 01:41:11;;;;;;;107.90;42.13;;;-2.90;99.90;;;;;;2094746;28;20021;-68
2021/01/08 01:42:11;;;;;;;96.05;40.38;;;-2.90;99.90;;;;;;2097197;28;20353;-67
2021/01/08 01:43:12;;;;;;;97.72;41.38;;;-3.00;99.90;;;;;;2091558;28;20084;-67
2021/01/08 01:44:13;;;;;;;99.28;38.17;;;-3.00;99.90;;;;;;2089212;28;20033;-67
2021/01/08 01:45:14;;;;;;;98.60;39.38;;;-3.00;99.90;;;;;;2102179;28;20069;-67
2021/01/08 01:46:20;;;;;;;93.57;39.08;;;-3.10;99.90;;;;;;2103318;28;20044;-67
2021/01/08 01:47:21;;;;;;;89.60;36.65;;;-3.10;99.90;;;;;;2096907;28;20481;-67
2021/01/08 01:48:22;;;;;;;96.53;36.83;;;-3.10;99.90;;;;;;2096360;28;20021;-67
2021/01/08 01:49:23;;;;;;;92.95;40.17;;;-3.20;99.90;;;;;;2097235;28;20662;-67
2021/01/08 01:50:25;;;;;;;91.53;39.50;;;-3.20;99.90;;;;;;2096625;28;20523;-67
2021/01/08 01:51:27;;;;;;;95.45;39.25;;;-3.20;99.90;;;;;;2096967;28;20044;-67
2021/01/08 01:52:27;;;;;;;100.40;37.83;;;-3.30;99.90;;;;;;2094722;28;20050;-67
2021/01/08 01:53:28;;;;;;;96.68;40.58;;;-3.30;99.90;;;;;;2094751;28;20047;-67
2021/01/08 01:54:29;;;;;;;88.38;38.40;;;-3.30;99.90;;;;;;2088066;28;20025;-67
2021/01/08 01:55:31;;;;;;;97.50;40.20;;;-3.30;99.90;;;;;;2094260;28;20121;-67
2021/01/08 01:56:31;;;;;;;89.78;38.75;;;-3.30;99.90;;;;;;2088487;28;20017;-67
2021/01/08 01:57:32;;;;;;;94.00;37.55;;;-3.30;99.90;;;;;;2092508;28;20028;-67
2021/01/08 01:58:33;;;;;;;88.70;38.08;;;-3.40;99.90;;;;;;2095873;28;20059;-68
2021/01/08 01:59:34;;;;;;;92.75;36.20;;;-3.40;99.90;;;;;;2092217;28;20017;-68
2021/01/08 02:00:34;;;;;;;86.85;37.70;;;-3.40;99.90;;;;;;2088300;28;20021;-68
2021/01/08 02:01:35;;;;;;;91.10;36.63;;;-3.40;99.90;;;;;;2093194;28;20503;-68
2021/01/08 02:02:51;;;;;;;89.38;35.60;;;-3.50;99.90;;;;;;2094816;28;20021;-68
2021/01/08 02:03:55;;;;;;;84.28;36.42;;;-3.50;99.90;;;;;;2092888;28;20021;-68
2021/01/08 02:05:00;;;;;;;81.90;35.75;;;-3.50;99.90;;;;;;2091450;28;20025;-67
2021/01/08 02:06:07;;;;;;;83.70;34.60;;;-3.60;99.90;;;;;;2092783;28;20028;-68
2021/01/08 02:07:08;;;;;;;90.07;36.10;;;-3.60;99.90;;;;;;2094099;28;20019;-67
2021/01/08 02:08:14;;;;;;;88.30;37.20;;;-3.50;99.90;;;;;;2088974;28;20412;-68
2021/01/08 02:09:15;;;;;;;90.05;36.40;;;-3.50;99.90;;;;;;2095258;28;20016;-69
2021/01/08 02:10:16;;;;;;;86.85;36.65;;;-3.50;99.90;;;;;;2096105;28;20024;-68
2021/01/08 02:11:21;;;;;;;87.35;36.85;;;-3.50;99.90;;;;;;2088881;28;20473;-68
2021/01/08 02:12:23;;;;;;;80.30;34.92;;;-3.50;99.90;;;;;;2093437;28;20023;-68
2021/01/08 02:13:43;;;;;;;95.53;38.85;;;-3.50;99.90;;;;;;2095031;28;20677;-68
2021/01/08 02:14:45;;;;;;;84.63;35.05;;;-3.50;99.90;;;;;;2096506;28;20024;-68
2021/01/08 02:15:46;;;;;;;90.47;35.58;;;-3.50;99.90;;;;;;2093036;28;20017;-68
2021/01/08 02:16:50;;;;;;;78.45;35.05;;;-3.50;99.90;;;;;;2088845;28;20033;-68
2021/01/08 02:17:51;;;;;;;85.22;36.42;;;-3.50;99.90;;;;;;2096096;28;20025;-68
2021/01/08 02:18:53;;;;;;;77.90;33.53;;;-3.50;99.90;;;;;;2097550;28;20443;-68
2021/01/08 02:20:04;;;;;;;80.28;34.28;;;-3.50;99.90;;;;;;2096311;28;20027;-69
2021/01/08 02:21:11;;;;;;;74.07;32.55;;;-3.50;99.90;;;;;;2089939;28;20043;-69
2021/01/08 02:22:21;;;;;;;73.07;31.95;;;-3.50;99.90;;;;;;2090007;28;20018;-69
2021/01/08 02:23:32;;;;;;;82.03;32.22;;;-3.50;99.90;;;;;;2095411;28;20024;-68
2021/01/08 02:24:44;;;;;;;74.10;31.05;;;-3.50;99.90;;;;;;2095328;28;20062;-68
2021/01/08 02:25:45;;;;;;;72.47;30.75;;;-3.50;99.90;;;;;;2094623;28;20055;-69
2021/01/08 02:26:47;;;;;;;75.25;33.17;;;-3.50;99.90;;;;;;2099588;28;20068;-69
2021/01/08 02:28:16;;;;;;;79.82;33.03;;;-3.50;99.90;;;;;;2104463;28;20036;-69
2021/01/08 02:29:18;;;;;;;72.13;29.83;;;-3.60;99.90;;;;;;2094024;28;21536;-69
2021/01/08 02:30:19;;;;;;;74.95;30.23;;;-3.60;99.90;;;;;;2089187;28;20029;-69
2021/01/08 02:31:20;;;;;;;69.70;30.65;;;-3.60;99.90;;;;;;2093729;28;20115;-69
2021/01/08 02:32:21;;;;;;;73.30;30.55;;;-3.60;99.90;;;;;;2097475;28;20059;-69
2021/01/08 02:33:23;;;;;;;71.57;31.42;;;-3.60;99.90;;;;;;2096461;28;20086;-69
2021/01/08 02:34:23;;;;;;;;;;;-3.60;99.90;;;;;;2097052;28;20024;-69
2021/01/08 02:35:24;;;;;;;72.38;29.73;;;-3.60;99.90;;;;;;2096818;28;19905;-69
2021/01/08 02:36:27;;;;;;;71.78;29.67;;;-3.60;99.90;;;;;;2095725;28;20020;-69
2021/01/08 02:37:29;;;;;;;72.85;29.40;;;-3.60;99.90;;;;;;2097379;28;20116;-69
2021/01/08 02:38:30;;;;;;;69.20;31.20;;;-3.60;99.90;;;;;;2088753;28;20013;-71
2021/01/08 02:39:31;;;;;;;69.32;31.27;;;-3.60;99.90;;;;;;2090883;28;20025;-70
2021/01/08 02:40:32;;;;;;;63.05;28.23;;;-3.60;99.90;;;;;;2088766;28;20028;-70
2021/01/08 02:41:35;;;;;;;67.25;29.35;;;-3.60;99.90;;;;;;2096278;28;20012;-70
2021/01/08 02:42:37;;;;;;;71.68;29.08;;;-3.60;99.90;;;;;;2097421;28;20103;-70
2021/01/08 02:43:38;;;;;;;65.22;28.52;;;-3.60;99.90;;;;;;2095660;28;20017;-69
2021/01/08 02:44:39;;;;;;;69.85;28.50;;;-3.60;99.90;;;;;;2096329;28;20192;-70
2021/01/08 02:45:40;;;;;;;68.43;29.85;;;-3.50;99.90;;;;;;2097435;28;20500;-70
2021/01/08 02:46:42;;;;;;;64.38;29.60;;;-3.40;99.90;;;;;;2097333;28;20073;-69
2021/01/08 02:47:43;;;;;;;65.40;28.17;;;-3.30;99.90;;;;;;2105154;28;20115;-70
2021/01/08 02:48:44;;;;;;;74.50;30.60;;;-3.30;99.90;;;;;;2105099;28;20019;-70
2021/01/08 02:49:44;;;;;;;66.32;30.20;;;-3.20;99.90;;;;;;2096994;28;20079;-69
2021/01/08 02:50:45;;;;;;;66.60;29.65;;;-3.20;99.90;;;;;;2097494;28;20028;-69
2021/01/08 02:51:46;;;;;;;65.55;30.02;;;-3.30;99.90;;;;;;2093715;28;20782;-71
2021/01/08 02:52:50;;;;;;;68.72;29.98;;;-3.30;99.90;;;;;;2091070;28;20041;-69
2021/01/08 02:53:52;;;;;;;76.57;31.77;;;-3.30;99.90;;;;;;2097152;28;20465;-69
2021/01/08 02:54:54;;;;;;;76.13;30.87;;;-3.30;99.90;;;;;;2097494;28;20012;-70
2021/01/08 02:55:59;;;;;;;69.72;29.98;;;-3.30;99.90;;;;;;2105351;28;21015;-69
2021/01/08 02:57:02;;;;;;;68.57;29.20;;;-3.30;99.90;;;;;;2104436;28;20423;-69
2021/01/08 02:58:04;;;;;;;63.15;28.67;;;-3.30;99.90;;;;;;2097136;28;20028;-69
2021/01/08 02:59:05;;;;;;;;;;;-3.40;99.90;;;;;;2097235;28;20028;-69
2021/01/08 03:00:07;;;;;;;70.47;28.70;;;-3.40;99.90;;;;;;2090840;28;19909;-69
2021/01/08 03:01:08;;;;;;;66.07;28.95;;;-3.50;99.90;;;;;;2097821;28;20018;-69
2021/01/08 03:02:09;;;;;;;68.57;31.20;;;-3.50;99.90;;;;;;2092296;28;20516;-69
2021/01/08 03:03:11;;;;;;;74.93;30.70;;;-3.60;99.90;;;;;;2088828;28;20028;-69
2021/01/08 03:04:11;;;;;;;72.88;30.63;;;-3.60;99.90;;;;;;2096271;28;20043;-69
2021/01/08 03:05:13;;;;;;;59.60;27.60;;;-3.50;99.90;;;;;;2097019;28;20123;-69
2021/01/08 03:06:15;;;;;;;81.43;31.15;;;-3.60;99.90;;;;;;2097009;28;20028;-69
2021/01/08 03:07:24;;;;;;;70.15;30.35;;;-3.50;99.90;;;;;;2097011;28;20031;-69
2021/01/08 03:08:26;;;;;;;71.78;30.13;;;-3.50;99.90;;;;;;2097047;28;20023;-69
2021/01/08 03:09:27;;;;;;;65.30;29.08;;;-3.50;99.90;;;;;;2097662;28;20503;-69
2021/01/08 03:10:28;;;;;;;71.68;32.10;;;-3.50;99.90;;;;;;2097396;28;20021;-69
2021/01/08 03:11:29;;;;;;;78.07;30.48;;;-3.50;99.90;;;;;;2097759;28;20044;-69
2021/01/08 03:12:30;;;;;;;75.78;29.73;;;-3.50;99.90;;;;;;2091031;28;20033;-69
2021/01/08 03:13:31;;;;;;;65.57;28.33;;;-3.50;99.90;;;;;;2091967;28;20464;-69
2021/01/08 03:14:32;;;;;;;61.38;28.13;;;-3.50;99.90;;;;;;2097720;28;20099;-69
2021/01/08 03:15:33;;;;;;;70.75;28.83;;;-3.50;99.90;;;;;;2094274;28;20044;-69
2021/01/08 03:16:33;;;;;;;80.68;33.97;;;-3.40;99.90;;;;;;2089598;28;20389;-70
2021/01/08 03:17:34;;;;;;;71.15;31.70;;;-3.40;99.90;;;;;;2093791;28;20047;-70
2021/01/08 03:18:35;;;;;;;85.35;32.88;;;-3.40;99.90;;;;;;2097561;28;20024;-71
2021/01/08 03:19:36;;;;;;;79.95;30.15;;;-3.30;99.90;;;;;;2105157;28;20051;-70
2021/01/08 03:20:36;;;;;;;73.43;30.92;;;-3.30;99.90;;;;;;2102331;28;20095;-70
2021/01/08 03:21:37;;;;;;;80.07;33.80;;;-3.40;99.90;;;;;;2089335;28;20104;-70
2021/01/08 03:22:37;;;;;;;80.45;33.92;;;-3.30;99.90;;;;;;2090672;28;20021;-70
2021/01/08 03:23:38;;;;;;;78.38;32.80;;;-3.30;99.90;;;;;;2088878;28;20028;-70
2021/01/08 03:24:39;;;;;;;96.15;37.05;;;-3.20;99.90;;;;;;2094851;28;20032;-70
2021/01/08 03:25:39;;;;;;;96.50;38.65;;;-3.10;99.90;;;;;;2095593;28;20024;-70
2021/01/08 03:26:40;;;;;;;80.35;34.88;;;-2.90;99.90;;;;;;2097845;28;20395;-69
2021/01/08 03:27:41;;;;;;;89.57;37.67;;;-2.90;99.90;;;;;;2096460;28;20419;-69
2021/01/08 03:28:41;;;;;;;91.07;39.65;;;-2.80;99.90;;;;;;2097675;28;20539;-70
2021/01/08 03:29:42;;;;;;;101.93;43.58;;;-2.70;99.90;;;;;;2092186;28;20049;-69
2021/01/08 03:30:43;;;;;;;96.18;42.08;;;-2.30;99.90;;;;;;2089254;28;20029;-70
2021/01/08 03:31:43;;;;;;;101.32;43.00;;;-2.20;99.90;;;;;;2097040;28;20032;-70
2021/01/08 03:32:44;;;;;;;104.97;44.78;;;-2.00;99.90;;;;;;2096796;28;20036;-70
2021/01/08 03:33:45;;;;;;;105.82;45.65;;;-1.90;99.90;;;;;;2097722;28;20688;-70
2021/01/08 03:34:45;;;;;;;106.50;46.33;;;-1.80;99.90;;;;;;2096441;28;20025;-70
2021/01/08 03:35:46;;;;;;;111.55;44.95;;;-1.60;99.90;;;;;;2097682;28;20029;-69
2021/01/08 03:36:47;;;;;;;100.45;42.25;;;-1.40;99.90;;;;;;2097417;28;20090;-69
2021/01/08 03:37:47;;;;;;;103.68;44.00;;;-1.30;99.90;;;;;;2097461;28;20017;-69
2021/01/08 03:38:48;;;;;;;96.70;40.90;;;-1.30;99.90;;;;;;2097699;28;20025;-69
2021/01/08 03:39:49;;;;;;;89.72;40.20;;;-1.30;99.90;;;;;;2096702;28;20063;-69
2021/01/08 03:40:49;;;;;;;91.43;41.00;;;-1.30;99.90;;;;;;2097449;28;20021;-69
2021/01/08 03:41:50;;;;;;;95.32;40.38;;;-1.30;99.90;;;;;;2097592;28;20511;-69
2021/01/08 03:42:51;;;;;;;78.88;35.70;;;-1.20;99.90;;;;;;2097336;28;20493;-70
2021/01/08 03:43:51;;;;;;;79.68;36.75;;;-1.20;99.90;;;;;;2088665;28;20052;-70
2021/01/08 03:44:52;;;;;;;82.63;37.10;;;-1.20;99.90;;;;;;2096524;28;20116;-69
2021/01/08 03:45:53;;;;;;;91.03;38.28;;;-1.20;99.90;;;;;;2097602;28;20101;-70
2021/01/08 03:46:53;;;;;;;83.32;35.30;;;-1.20;99.90;;;;;;2097324;28;20042;-70
2021/01/08 03:47:54;;;;;;;72.90;33.97;;;-1.10;99.90;;;;;;2097787;28;20103;-69
2021/01/08 03:48:55;;;;;;;73.75;34.13;;;-1.20;99.90;;;;;;2096247;28;20024;-69
2021/01/08 03:49:55;;;;;;;78.05;35.45;;;-1.10;99.90;;;;;;2094243;28;20025;-70
2021/01/08 03:50:56;;;;;;;73.72;33.10;;;-1.20;99.90;;;;;;2088847;28;20060;-69
2021/01/08 03:51:57;;;;;;;80.30;32.95;;;-1.10;99.90;;;;;;2089346;28;20410;-69
2021/01/08 03:52:57;;;;;;;65.93;31.58;;;-1.20;99.90;;;;;;2089260;28;20032;-69
2021/01/08 03:53:58;;;;;;;72.88;33.67;;;-1.20;99.90;;;;;;2097074;28;20024;-70
2021/01/08 03:54:59;;;;;;;75.55;31.55;;;-1.20;99.90;;;;;;2097790;28;20027;-70
2021/01/08 03:56:00;;;;;;;64.40;30.63;;;-1.10;99.90;;;;;;2097161;28;20020;-70
2021/01/08 03:57:01;;;;;;;70.78;31.85;;;-1.10;99.90;;;;;;2096898;28;20087;-71
2021/01/08 03:58:01;;;;;;;63.10;30.30;;;-1.10;99.90;;;;;;2097107;28;20081;-70
2021/01/08 03:59:02;;;;;;;73.55;32.05;;;-1.00;99.90;;;;;;2097116;28;20055;-69
2021/01/08 04:00:05;;;;;;;76.85;32.67;;;-1.00;99.90;;;;;;2097664;28;20059;-69
2021/01/08 04:01:06;;;;;;;67.47;30.75;;;-0.90;99.90;;;;;;2097821;28;20400;-69
2021/01/08 04:02:07;;;;;;;71.53;30.23;;;-0.90;99.90;;;;;;2096665;28;20024;-70
2021/01/08 04:03:07;;;;;;;62.35;29.38;;;-0.80;99.90;;;;;;2097095;28;20415;-69
2021/01/08 04:04:08;;;;;;;64.70;30.75;;;-0.80;99.90;;;;;;2097414;28;20036;-69
2021/01/08 04:05:09;;;;;;;66.55;31.83;;;-0.80;99.90;;;;;;2097387;28;20031;-69
2021/01/08 04:06:10;;;;;;;65.90;30.50;;;-0.80;99.90;;;;;;2097734;28;20460;-69
2021/01/08 04:07:10;;;;;;;68.72;30.17;;;-0.80;99.90;;;;;;2096512;28;20025;-69
2021/01/08 04:08:11;;;;;;;68.13;31.75;;;-0.80;99.90;;;;;;2096930;28;20059;-69
2021/01/08 04:09:12;;;;;;;72.82;34.03;;;-0.90;99.90;;;;;;2095397;28;20125;-70
2021/01/08 04:10:12;;;;;;;77.35;34.15;;;-0.90;99.90;;;;;;2097601;28;20033;-69
2021/01/08 04:11:13;;;;;;;73.22;32.40;;;-1.00;99.90;;;;;;2092165;28;20025;-70
2021/01/08 04:12:14;;;;;;;68.57;33.00;;;-1.00;99.90;;;;;;2094382;28;20041;-69
2021/01/08 04:13:14;;;;;;;79.28;34.53;;;-1.00;99.90;;;;;;2091232;28;20506;-69
2021/01/08 04:14:15;;;;;;;72.30;32.78;;;-1.00;99.90;;;;;;2088359;28;20107;-69
2021/01/08 04:15:16;;;;;;;69.53;33.03;;;-1.00;99.90;;;;;;2095738;28;20087;-70
2021/01/08 04:16:16;;;;;;;72.07;32.47;;;-0.90;99.90;;;;;;2096126;28;20516;-70
2021/01/08 04:17:17;;;;;;;66.60;32.58;;;-0.90;99.90;;;;;;2097894;28;20019;-70
2021/01/08 04:18:18;;;;;;;72.85;33.75;;;-0.90;99.90;;;;;;2090638;28;20025;-69
2021/01/08 04:19:18;;;;;;;71.15;32.40;;;-0.80;99.90;;;;;;2094933;28;20035;-69
2021/01/08 04:20:19;;;;;;;68.78;31.88;;;-0.70;99.90;;;;;;2097504;28;20431;-69
2021/01/08 04:21:20;;;;;;;68.45;31.70;;;-0.70;99.90;;;;;;2097965;28;20082;-69
2021/01/08 04:22:21;;;;;;;57.88;29.80;;;-0.70;99.90;;;;;;2104662;28;20046;-70
2021/01/08 04:23:21;;;;;;;61.85;29.52;;;-0.60;99.90;;;;;;2098514;28;20025;-69
2021/01/08 04:24:22;;;;;;;58.50;27.95;;;-0.50;99.90;;;;;;2094470;28;20077;-69
2021/01/08 04:25:23;;;;;;;57.85;27.90;;;-0.50;99.90;;;;;;2098384;28;20032;-70
2021/01/08 04:26:23;;;;;;;55.30;26.60;;;-0.40;99.90;;;;;;2097049;28;20100;-70
2021/01/08 04:27:24;;;;;;;52.95;25.58;;;-0.30;99.90;;;;;;2095266;28;20025;-70
2021/01/08 04:28:25;;;;;;;52.83;26.05;;;-0.30;99.90;;;;;;2089821;28;20037;-69
2021/01/08 04:29:25;;;;;;;52.95;26.88;;;-0.20;99.90;;;;;;2092210;28;20490;-69
2021/01/08 04:30:26;;;;;;;50.72;25.30;;;-0.20;99.90;;;;;;2098120;28;20052;-69
2021/01/08 04:31:27;;;;;;;48.22;24.92;;;-0.10;99.90;;;;;;2090106;28;20070;-69
2021/01/08 04:32:27;;;;;;;54.50;25.88;;;-0.10;99.90;;;;;;2097755;28;20024;-69
2021/01/08 04:33:28;;;;;;;52.30;26.35;;;0.00;99.90;;;;;;2106296;28;20021;-69
2021/01/08 04:34:29;;;;;;;52.90;25.92;;;0.00;99.90;;;;;;2098180;28;20432;-69
2021/01/08 04:35:29;;;;;;;54.08;27.02;;;0.00;99.90;;;;;;2098473;28;20396;-69
2021/01/08 04:36:30;;;;;;;52.13;27.20;;;0.00;99.90;;;;;;2098125;28;20547;-69
2021/01/08 04:37:31;;;;;;;59.83;28.35;;;0.00;99.90;;;;;;2097059;28;20017;-69
2021/01/08 04:38:31;;;;;;;53.67;26.63;;;0.00;99.90;;;;;;2100220;28;20024;-68
2021/01/08 04:39:32;;;;;;;53.05;26.17;;;0.00;99.90;;;;;;2105505;28;20064;-69
2021/01/08 04:40:33;;;;;;;62.75;29.58;;;0.00;99.90;;;;;;2097722;28;20405;-69
2021/01/08 04:41:35;;;;;;;66.15;31.15;;;-0.10;99.90;;;;;;2108299;28;20149;-69
2021/01/08 04:42:36;;;;;;;65.63;32.78;;;-0.10;99.90;;;;;;2105430;28;20054;-68
2021/01/08 04:43:37;;;;;;;77.40;36.15;;;-0.10;99.90;;;;;;2095405;28;20507;-69
2021/01/08 04:44:37;;;;;;;71.38;33.85;;;-0.10;99.90;;;;;;2096715;28;20028;-69
2021/01/08 04:45:38;;;;;;;77.32;34.38;;;-0.10;99.90;;;;;;2089836;28;20446;-69
2021/01/08 04:46:43;;;;;;;67.72;32.60;;;-0.10;99.90;;;;;;2097103;28;20028;-69
2021/01/08 04:47:46;;;;;;;72.90;33.63;;;-0.10;99.90;;;;;;2098171;28;20025;-69
2021/01/08 04:48:47;;;;;;;65.18;32.42;;;-0.10;99.90;;;;;;2097030;28;20032;-69
2021/01/08 04:49:47;;;;;;;66.80;30.05;;;-0.10;99.90;;;;;;2097035;28;20537;-69
2021/01/08 04:50:49;;;;;;;90.13;43.92;;;-0.10;99.90;;;;;;2089758;28;20036;-69
2021/01/08 04:51:51;;;;;;;80.55;37.72;;;-0.10;99.90;;;;;;2092267;28;20128;-69
2021/01/08 04:52:53;;;;;;;76.95;36.72;;;-0.10;99.90;;;;;;2089932;28;20036;-69
2021/01/08 04:53:54;;;;;;;57.92;30.92;;;-0.20;99.90;;;;;;2090740;28;20021;-69
2021/01/08 04:54:55;;;;;;;58.65;28.20;;;-0.20;99.90;;;;;;2106702;28;20122;-69
2021/01/08 04:56:00;;;;;;;51.10;25.98;;;-0.20;99.90;;;;;;2114293;28;20582;-69
2021/01/08 04:57:03;;;;;;;55.90;27.60;;;-0.10;99.90;;;;;;2092914;28;20652;-69
2021/01/08 04:58:07;;;;;;;51.15;27.17;;;-0.10;99.90;;;;;;2089853;28;20071;-69
2021/01/08 04:59:07;;;;;;;52.72;26.52;;;-0.10;99.90;;;;;;2095966;28;20029;-69
2021/01/08 05:00:09;;;;;;;47.15;25.50;;;-0.10;99.90;;;;;;2097259;28;20099;-69
2021/01/08 05:01:09;;;;;;;55.38;26.55;;;-0.10;99.90;;;;;;2091556;28;20112;-69
2021/01/08 05:02:10;;;;;;;50.53;25.40;;;0.00;99.90;;;;;;2092761;28;20092;-68
2021/01/08 05:03:11;;;;;;;46.38;23.98;;;0.00;99.90;;;;;;2097109;28;20097;-69
2021/01/08 05:04:12;;;;;;;42.83;22.50;;;0.00;99.90;;;;;;2097039;28;20028;-68
2021/01/08 05:05:14;;;;;;;44.10;23.48;;;0.00;99.90;;;;;;2097259;28;20442;-68
2021/01/08 05:06:15;;;;;;;41.75;23.33;;;0.00;99.90;;;;;;2097914;28;20025;-68
2021/01/08 05:07:15;;;;;;;46.08;22.05;;;0.10;99.90;;;;;;2096503;28;20052;-68
2021/01/08 05:08:16;;;;;;;43.15;21.98;;;0.10;99.90;;;;;;2095883;28;20033;-69
2021/01/08 05:09:17;;;;;;;38.47;20.77;;;0.10;99.90;;;;;;2097206;28;20447;-68
2021/01/08 05:10:17;;;;;;;38.38;20.80;;;0.10;99.90;;;;;;2096528;28;20507;-68
2021/01/08 05:11:22;;;;;;;42.08;21.42;;;0.10;99.90;;;;;;2098056;28;20032;-69